Asteria — WDE5489 — position and weather

sailwx.info

Track history (hours):
 
Tides and Currents Weather Stations Pressure Air Temp Water Temp Dewpoint Dewpoint Depression Visibility Wind Speed Wind Dir Waves Ship Positions

Asteria

Owner: Boston HarborCruises, Boston, MA. More information available from US FCC via Universal Licensing System and Coast Guard Vessel Documentation Center.

Last reported at 2017-Jun-26 18:31 UTC. Time now 2017-Jun-26 18:49 UTC.
Position N 42°21' W 071°02'.

Length 33 m; draft 2 m.

Type: High speed craft. MMSI: 367367470.

Date/timePositionNaut miles runAvg speedWind from/ knotsBaromVisibWave heightAir tempDewpointWater temp
2017-Jun-26 18:31N 42°21' W 071°02'1427.4
2017-Jun-26 18:01N 42°22' W 070°43'1122.7
2017-Jun-26 17:30N 42°26' W 070°28'2 3.5
2017-Jun-26 17:00N 42°26' W 070°26'1 1.6
2017-Jun-26 16:31N 42°27' W 070°27'4 7.8
2017-Jun-26 16:01N 42°23' W 070°28'1632.8
2017-Jun-26 15:31N 42°22' W 070°50'918.6
2017-Jun-26 15:00N 42°22' W 071°03'0 0.1
2017-Jun-26 14:00N 42°22' W 071°03'0 0.8
2017-Jun-26 13:30N 42°21' W 071°02'611.9
2017-Jun-26 13:01N 42°17' W 070°57'2 4.2
2017-Jun-26 12:30N 42°15' W 070°55'816.7
2017-Jun-26 12:01N 42°21' W 071°03'613.0
2017-Jun-26 11:31N 42°17' W 070°57'2 3.8
2017-Jun-26 11:00N 42°15' W 070°55'1 1.5
2017-Jun-26 10:30N 42°16' W 070°55'0 0.0
2017-Jun-26 10:00N 42°16' W 070°55'0 0.0
2017-Jun-25 23:47N 42°16' W 070°56'726.3
2017-Jun-25 23:31N 42°22' W 071°02'1 1.3
2017-Jun-25 23:00N 42°22' W 071°03'612.7
2017-Jun-25 22:31N 42°21' W 070°55'1632.2
2017-Jun-25 22:00N 42°23' W 070°33'510.0
2017-Jun-25 21:30N 42°24' W 070°26'1 1.5
2017-Jun-25 21:00N 42°24' W 070°27'611.5
2017-Jun-25 20:31N 42°23' W 070°35'1632.2
2017-Jun-25 20:01N 42°20' W 070°56'510.0
2017-Jun-25 19:30N 42°22' W 071°03'0 0.0
2017-Jun-25 19:00N 42°22' W 071°03'1 1.1
2017-Jun-25 18:30N 42°22' W 071°02'1020.5
2017-Jun-25 18:01N 42°21' W 070°48'1325.9
2017-Jun-25 17:30N 42°25' W 070°32'2 4.8
2017-Jun-25 17:00N 42°26' W 070°28'0 0.9
2017-Jun-25 16:31N 42°25' W 070°28'1 1.6
2017-Jun-25 16:01N 42°25' W 070°29'1529.7
2017-Jun-25 15:31N 42°21' W 070°49'1121.1
2017-Jun-25 15:00N 42°22' W 071°03'0 0.0
2017-Jun-25 14:30N 42°22' W 071°03'0 0.1
2017-Jun-25 13:30N 42°22' W 071°03'1 1.1
2017-Jun-25 13:00N 42°22' W 071°02'510.3
2017-Jun-25 12:31N 42°18' W 070°58'2 0.2
2017-Jun-25 00:15N 42°16' W 070°56'729.5
2017-Jun-25 00:00N 42°21' W 071°02'1 1.4
2017-Jun-24 23:30N 42°22' W 071°03'0 0.0
2017-Jun-24 23:00N 42°22' W 071°03'4 7.5
2017-Jun-24 22:31N 42°20' W 070°58'8 3.4
2017-Jun-24 20:03N 42°22' W 070°47'134.3
2017-Jun-24 20:00N 42°21' W 070°49'1120.9
2017-Jun-24 19:30N 42°22' W 071°03'0 0.0
2017-Jun-24 19:00N 42°22' W 071°03'2 3.7
2017-Jun-24 18:31N 42°21' W 071°01'1632.2
2017-Jun-24 18:00N 42°22' W 070°39'1121.7
2017-Jun-24 17:30N 42°26' W 070°25'0 0.2
2017-Jun-24 17:01N 42°26' W 070°25'1 1.3
2017-Jun-24 16:31N 42°26' W 070°26'3 5.9
2017-Jun-24 16:00N 42°25' W 070°30'1733.3
2017-Jun-24 15:31N 42°20' W 070°51'917.6
2017-Jun-24 15:00N 42°22' W 071°03'1 0.6
2017-Jun-24 14:00N 42°22' W 071°02'714.1
2017-Jun-24 13:30N 42°16' W 070°56'2 1.8
2017-Jun-24 12:14N 42°15' W 070°58'1 4.8
2017-Jun-24 11:56N 42°15' W 070°57'1 0.1
2017-Jun-23 23:49N 42°16' W 070°56'724.6
2017-Jun-23 23:30N 42°21' W 071°03'2 3.9
2017-Jun-23 23:00N 42°21' W 071°01'713.0
2017-Jun-23 22:30N 42°15' W 070°55'816.8
2017-Jun-23 22:00N 42°21' W 071°03'1 1.5
2017-Jun-23 21:31N 42°21' W 071°02'815.7
2017-Jun-23 21:01N 42°15' W 070°55'816.7
2017-Jun-23 20:30N 42°21' W 071°03'0 0.3
2017-Jun-23 20:01N 42°21' W 071°03'0 0.4
2017-Jun-23 19:31N 42°21' W 071°02'0 0.7
2017-Jun-23 19:00N 42°22' W 071°02'0 0.0
2017-Jun-23 18:30N 42°22' W 071°02'0 0.6
2017-Jun-23 18:01N 42°22' W 071°03'1325.8
2017-Jun-23 17:30N 42°22' W 070°45'2113.1
2017-Jun-23 15:52N 42°18' W 070°16'4 6.4
2017-Jun-23 15:19N 42°21' W 070°20'928.6
2017-Jun-23 15:00N 42°18' W 070°31'2423.9
2017-Jun-23 14:00N 42°22' W 071°03'0 0.5
2017-Jun-23 13:30N 42°22' W 071°03'611.4
2017-Jun-23 13:01N 42°17' W 070°58'3 5.1
2017-Jun-23 12:31N 42°16' W 070°55'816.3
2017-Jun-23 12:00N 42°21' W 071°03'612.8
2017-Jun-23 11:31N 42°17' W 070°57'2 4.0
2017-Jun-23 11:00N 42°15' W 070°55'2 3.6
2017-Jun-23 10:28N 42°15' W 070°58'2 0.2
2017-Jun-23 00:07N 42°15' W 070°55'0 0.0
2017-Jun-23 00:00N 42°15' W 070°55'816.7
2017-Jun-22 23:30N 42°21' W 071°03'2 4.7
2017-Jun-22 23:01N 42°20' W 071°00'612.3
2017-Jun-22 22:31N 42°15' W 070°55'816.7
2017-Jun-22 22:00N 42°21' W 071°03'1 1.6
2017-Jun-22 21:31N 42°21' W 071°02'815.5
2017-Jun-22 21:00N 42°15' W 070°55'816.7
2017-Jun-22 20:30N 42°21' W 071°03'0 0.5
2017-Jun-22 20:00N 42°22' W 071°03'0 0.0
2017-Jun-22 19:30N 42°22' W 071°03'0 0.0
2017-Jun-22 19:00N 42°22' W 071°03'1 1.2
2017-Jun-22 18:30N 42°22' W 071°02'1 1.2
2017-Jun-22 18:00N 42°22' W 071°03'1 1.4
2017-Jun-22 17:30N 42°21' W 071°02'1225.0
2017-Jun-22 17:01N 42°18' W 070°46'1913.4
2017-Jun-22 15:37N 42°20' W 070°20'1 2.3
2017-Jun-22 15:22N 42°20' W 070°20'822.4
2017-Jun-22 15:01N 42°23' W 070°30'2424.4
2017-Jun-22 14:00N 42°22' W 071°03'0 0.6
2017-Jun-22 13:31N 42°21' W 071°03'510.9
2017-Jun-22 13:01N 42°17' W 070°58'2 4.1
2017-Jun-22 12:31N 42°16' W 070°56'815.3
2017-Jun-22 12:00N 42°21' W 071°03'510.7
2017-Jun-22 11:30N 42°18' W 070°58'3 6.1
2017-Jun-22 11:00N 42°15' W 070°55'3 5.8
2017-Jun-22 10:30N 42°18' W 070°55'0 0.0
2017-Jun-22 10:00N 42°18' W 070°55'3 5.6
2017-Jun-22 09:30N 42°15' W 070°55'1 0.1
2017-Jun-22 01:04N 42°16' W 070°55'0 6.4
2017-Jun-22 01:01N 42°16' W 070°56'815.0
2017-Jun-22 00:30N 42°21' W 071°03'0 0.5
2017-Jun-22 00:00N 42°22' W 071°03'0 0.0
2017-Jun-21 23:31N 42°22' W 071°03'0 0.0
2017-Jun-21 23:01N 42°22' W 071°03'3 6.3
2017-Jun-21 22:30N 42°20' W 070°59'1632.1
2017-Jun-21 22:01N 42°21' W 070°38'13 8.7
2017-Jun-21 20:27N 42°23' W 070°20'1432.3
2017-Jun-21 20:00N 42°22' W 070°39'1632.2
2017-Jun-21 19:30N 42°21' W 071°01'2 3.6
2017-Jun-21 19:00N 42°22' W 071°03'1 1.3
2017-Jun-21 18:30N 42°22' W 071°02'1 1.5
2017-Jun-21 18:00N 42°21' W 071°02'1325.9
2017-Jun-21 17:30N 42°22' W 070°44'1224.5
2017-Jun-21 17:00N 42°24' W 070°28'5 4.5
2017-Jun-21 15:48N 42°24' W 070°20'0 1.3
2017-Jun-21 15:30N 42°24' W 070°21'1428.5
2017-Jun-21 15:01N 42°23' W 070°40'1631.6
2017-Jun-21 14:30N 42°21' W 071°01'7 1.9
2017-Jun-21 10:50N 42°15' W 070°55'0 0.0
2017-Jun-21 00:13N 42°15' W 070°55'0 2.3
2017-Jun-21 00:00N 42°16' W 070°55'816.1
2017-Jun-20 23:31N 42°21' W 071°03'3 6.0
2017-Jun-20 23:00N 42°20' W 070°60'510.4
2017-Jun-20 22:30N 42°15' W 070°55'817.1
2017-Jun-20 22:00N 42°21' W 071°03'3 5.9
2017-Jun-20 21:30N 42°20' W 070°60'510.8
2017-Jun-20 21:00N 42°15' W 070°55'816.5
2017-Jun-20 20:30N 42°21' W 071°03'1 2.6
2017-Jun-20 20:00N 42°23' W 071°03'1 1.0
2017-Jun-20 19:30N 42°22' W 071°03'1 1.2
2017-Jun-20 19:00N 42°22' W 071°02'1 1.2
2017-Jun-20 18:30N 42°22' W 071°03'1 1.2
2017-Jun-20 18:00N 42°21' W 071°02'1121.7
2017-Jun-20 17:30N 42°22' W 070°48'1530.5
2017-Jun-20 17:01N 42°25' W 070°27'2 3.9
2017-Jun-20 16:30N 42°26' W 070°25'510.0
2017-Jun-20 16:00N 42°22' W 070°21'510.4
2017-Jun-20 15:30N 42°26' W 070°26'713.9
2017-Jun-20 15:01N 42°23' W 070°34'2121.4
2017-Jun-20 14:00N 42°22' W 071°03'0 0.5
2017-Jun-20 13:30N 42°21' W 071°03'613.1
2017-Jun-20 13:00N 42°17' W 070°56'2 3.0
2017-Jun-20 12:30N 42°16' W 070°55'816.0
2017-Jun-20 12:00N 42°21' W 071°03'612.0
2017-Jun-20 11:31N 42°17' W 070°57'2 4.8
2017-Jun-20 11:00N 42°15' W 070°55'0 0.0
2017-Jun-20 00:26N 42°15' W 070°55'1 1.5
2017-Jun-20 00:00N 42°16' W 070°55'815.7
2017-Jun-19 23:30N 42°21' W 071°03'510.4
2017-Jun-19 23:01N 42°18' W 070°58'2 4.9
2017-Jun-19 22:30N 42°16' W 070°56'815.2
2017-Jun-19 22:00N 42°21' W 071°03'714.7
2017-Jun-19 21:30N 42°16' W 070°56'0 0.7
2017-Jun-19 21:00N 42°16' W 070°56'815.3
2017-Jun-19 20:30N 42°21' W 071°03'0 0.7
2017-Jun-19 20:00N 42°21' W 071°03'0 0.7
2017-Jun-19 19:30N 42°22' W 071°02'1 1.3
2017-Jun-19 19:00N 42°22' W 071°03'0 0.0
2017-Jun-19 18:30N 42°22' W 071°03'0 0.0
2017-Jun-19 17:59N 42°22' W 071°03'2 3.7
2017-Jun-19 17:31N 42°21' W 071°01'1529.7
2017-Jun-19 17:01N 42°21' W 070°41'1121.8
2017-Jun-19 16:30N 42°24' W 070°26'3 4.9
2017-Jun-19 15:55N 42°26' W 070°27'2 5.2
2017-Jun-19 15:31N 42°26' W 070°24'1019.2
2017-Jun-19 15:01N 42°22' W 070°36'2020.2
2017-Jun-19 14:00N 42°22' W 071°03'0 0.5
2017-Jun-19 13:31N 42°21' W 071°03'510.9
2017-Jun-19 13:01N 42°18' W 070°58'2 4.8
2017-Jun-19 12:30N 42°16' W 070°55'815.7
2017-Jun-19 12:00N 42°21' W 071°03'5 9.1
2017-Jun-19 11:31N 42°18' W 070°58'4 7.3
2017-Jun-19 10:59N 42°15' W 070°55'1 1.6
2017-Jun-19 10:30N 42°16' W 070°55'0 0.0
2017-Jun-19 10:00N 42°16' W 070°55'1 1.4
2017-Jun-19 09:30N 42°15' W 070°55'1 0.1
2017-Jun-18 22:35N 42°16' W 070°56'223.9
2017-Jun-18 22:30N 42°17' W 070°57'612.0
2017-Jun-18 22:01N 42°22' W 071°03'0 0.1
2017-Jun-18 21:30N 42°22' W 071°03'1529.2
2017-Jun-18 21:01N 42°23' W 070°43'2 4.8
2017-Jun-18 20:31N 42°23' W 070°40'1020.2
2017-Jun-18 20:00N 42°22' W 070°53'714.2
2017-Jun-18 19:30N 42°22' W 071°03'0 0.0
2017-Jun-18 19:00N 42°22' W 071°03'0 0.3
2017-Jun-18 18:31N 42°22' W 071°03'713.1
2017-Jun-18 18:01N 42°22' W 070°54'1530.9
2017-Jun-18 17:30N 42°23' W 070°33'816.8
2017-Jun-18 17:00N 42°24' W 070°22'1 1.3
2017-Jun-18 16:30N 42°24' W 070°21'917.5
2017-Jun-18 16:01N 42°23' W 070°32'1530.7
2017-Jun-18 15:30N 42°22' W 070°53'714.5
2017-Jun-18 15:00N 42°22' W 071°03'1 0.6
2017-Jun-18 14:00N 42°22' W 071°02'815.1
2017-Jun-18 13:30N 42°16' W 070°55'1 0.0
2017-Jun-17 20:39N 42°15' W 070°55'0 1.4
2017-Jun-17 20:30N 42°15' W 070°55'714.4
2017-Jun-17 20:00N 42°21' W 071°01'2 3.2
2017-Jun-17 19:30N 42°22' W 071°03'2 4.3
2017-Jun-17 19:00N 42°20' W 071°01'4 7.1
2017-Jun-17 18:30N 42°18' W 070°58'3 5.2
2017-Jun-17 18:01N 42°20' W 070°58'0 0.0
2017-Jun-17 17:30N 42°20' W 070°58'0 0.0
2017-Jun-17 17:00N 42°20' W 070°58'0 0.0
2017-Jun-17 16:31N 42°20' W 070°58'0 0.0
2017-Jun-17 16:01N 42°20' W 070°58'0 0.1
2017-Jun-17 15:31N 42°20' W 070°58'0 0.0
2017-Jun-17 15:00N 42°20' W 070°58'0 0.0
2017-Jun-17 14:01N 42°20' W 070°58'0 0.0
2017-Jun-17 13:31N 42°20' W 070°58'0 0.0
2017-Jun-17 13:01N 42°20' W 070°58'0 0.0
2017-Jun-17 12:31N 42°20' W 070°58'0 0.0
2017-Jun-17 12:00N 42°20' W 070°58'2 4.4
2017-Jun-17 11:31N 42°21' W 071°01'1 2.9
2017-Jun-17 11:00N 42°22' W 071°03'0 0.0
2017-Jun-17 10:30N 42°22' W 071°03'0 0.0
2017-Jun-17 10:00N 42°22' W 071°03'0 0.2
2017-Jun-17 09:30N 42°22' W 071°03'0 0.9
2017-Jun-17 09:01N 42°21' W 071°02'8 0.9
2017-Jun-17 00:10N 42°15' W 070°55'0 1.4
2017-Jun-16 23:59N 42°15' W 070°55'817.5
2017-Jun-16 23:31N 42°21' W 071°03'3 6.4
2017-Jun-16 23:01N 42°19' W 070°60'5 9.2
2017-Jun-16 22:27N 42°15' W 070°55'818.4
2017-Jun-16 22:00N 42°21' W 071°03'2 3.2
2017-Jun-16 21:30N 42°21' W 071°01'713.4
2017-Jun-16 21:00N 42°15' W 070°55'816.9
2017-Jun-16 20:30N 42°21' W 071°03'0 0.4
2017-Jun-16 20:00N 42°21' W 071°03'0 0.5
2017-Jun-16 19:30N 42°22' W 071°03'0 0.0
2017-Jun-16 19:00N 42°22' W 071°03'  
Track history (hours):
 
Tides and Currents Weather Stations Pressure Air Temp Water Temp Dewpoint Dewpoint Depression Visibility Wind Speed Wind Dir Waves Ship Positions

Asteria

Owner: Boston HarborCruises, Boston, MA. More information available from US FCC via Universal Licensing System and Coast Guard Vessel Documentation Center.

Last reported at 2017-Jun-26 18:31 UTC. Time now 2017-Jun-26 18:49 UTC.
Position N 42°21' W 071°02'.

Length 33 m; draft 2 m.

Type: High speed craft. MMSI: 367367470.

Date/timePositionNaut miles runAvg speedWind from/ knotsBaromVisibWave heightAir tempDewpointWater temp
2017-Jun-26 18:31N 42°21' W 071°02'1427.4
2017-Jun-26 18:01N 42°22' W 070°43'1122.7
2017-Jun-26 17:30N 42°26' W 070°28'2 3.5
2017-Jun-26 17:00N 42°26' W 070°26'1 1.6
2017-Jun-26 16:31N 42°27' W 070°27'4 7.8
2017-Jun-26 16:01N 42°23' W 070°28'1632.8
2017-Jun-26 15:31N 42°22' W 070°50'918.6
2017-Jun-26 15:00N 42°22' W 071°03'0 0.1
2017-Jun-26 14:00N 42°22' W 071°03'0 0.8
2017-Jun-26 13:30N 42°21' W 071°02'611.9
2017-Jun-26 13:01N 42°17' W 070°57'2 4.2
2017-Jun-26 12:30N 42°15' W 070°55'816.7
2017-Jun-26 12:01N 42°21' W 071°03'613.0
2017-Jun-26 11:31N 42°17' W 070°57'2 3.8
2017-Jun-26 11:00N 42°15' W 070°55'1 1.5
2017-Jun-26 10:30N 42°16' W 070°55'0 0.0
2017-Jun-26 10:00N 42°16' W 070°55'0 0.0
2017-Jun-25 23:47N 42°16' W 070°56'726.3
2017-Jun-25 23:31N 42°22' W 071°02'1 1.3
2017-Jun-25 23:00N 42°22' W 071°03'612.7
2017-Jun-25 22:31N 42°21' W 070°55'1632.2
2017-Jun-25 22:00N 42°23' W 070°33'510.0
2017-Jun-25 21:30N 42°24' W 070°26'1 1.5
2017-Jun-25 21:00N 42°24' W 070°27'611.5
2017-Jun-25 20:31N 42°23' W 070°35'1632.2
2017-Jun-25 20:01N 42°20' W 070°56'510.0
2017-Jun-25 19:30N 42°22' W 071°03'0 0.0
2017-Jun-25 19:00N 42°22' W 071°03'1 1.1
2017-Jun-25 18:30N 42°22' W 071°02'1020.5
2017-Jun-25 18:01N 42°21' W 070°48'1325.9
2017-Jun-25 17:30N 42°25' W 070°32'2 4.8
2017-Jun-25 17:00N 42°26' W 070°28'0 0.9
2017-Jun-25 16:31N 42°25' W 070°28'1 1.6
2017-Jun-25 16:01N 42°25' W 070°29'1529.7
2017-Jun-25 15:31N 42°21' W 070°49'1121.1
2017-Jun-25 15:00N 42°22' W 071°03'0 0.0
2017-Jun-25 14:30N 42°22' W 071°03'0 0.1
2017-Jun-25 13:30N 42°22' W 071°03'1 1.1
2017-Jun-25 13:00N 42°22' W 071°02'510.3
2017-Jun-25 12:31N 42°18' W 070°58'2 0.2
2017-Jun-25 00:15N 42°16' W 070°56'729.5
2017-Jun-25 00:00N 42°21' W 071°02'1 1.4
2017-Jun-24 23:30N 42°22' W 071°03'0 0.0
2017-Jun-24 23:00N 42°22' W 071°03'4 7.5
2017-Jun-24 22:31N 42°20' W 070°58'8 3.4
2017-Jun-24 20:03N 42°22' W 070°47'134.3
2017-Jun-24 20:00N 42°21' W 070°49'1120.9
2017-Jun-24 19:30N 42°22' W 071°03'0 0.0
2017-Jun-24 19:00N 42°22' W 071°03'2 3.7
2017-Jun-24 18:31N 42°21' W 071°01'1632.2
2017-Jun-24 18:00N 42°22' W 070°39'1121.7
2017-Jun-24 17:30N 42°26' W 070°25'0 0.2
2017-Jun-24 17:01N 42°26' W 070°25'1 1.3
2017-Jun-24 16:31N 42°26' W 070°26'3 5.9
2017-Jun-24 16:00N 42°25' W 070°30'1733.3
2017-Jun-24 15:31N 42°20' W 070°51'917.6
2017-Jun-24 15:00N 42°22' W 071°03'1 0.6
2017-Jun-24 14:00N 42°22' W 071°02'714.1
2017-Jun-24 13:30N 42°16' W 070°56'2 1.8
2017-Jun-24 12:14N 42°15' W 070°58'1 4.8
2017-Jun-24 11:56N 42°15' W 070°57'1 0.1
2017-Jun-23 23:49N 42°16' W 070°56'724.6
2017-Jun-23 23:30N 42°21' W 071°03'2 3.9
2017-Jun-23 23:00N 42°21' W 071°01'713.0
2017-Jun-23 22:30N 42°15' W 070°55'816.8
2017-Jun-23 22:00N 42°21' W 071°03'1 1.5
2017-Jun-23 21:31N 42°21' W 071°02'815.7
2017-Jun-23 21:01N 42°15' W 070°55'816.7
2017-Jun-23 20:30N 42°21' W 071°03'0 0.3
2017-Jun-23 20:01N 42°21' W 071°03'0 0.4
2017-Jun-23 19:31N 42°21' W 071°02'0 0.7
2017-Jun-23 19:00N 42°22' W 071°02'0 0.0
2017-Jun-23 18:30N 42°22' W 071°02'0 0.6
2017-Jun-23 18:01N 42°22' W 071°03'1325.8
2017-Jun-23 17:30N 42°22' W 070°45'2113.1
2017-Jun-23 15:52N 42°18' W 070°16'4 6.4
2017-Jun-23 15:19N 42°21' W 070°20'928.6
2017-Jun-23 15:00N 42°18' W 070°31'2423.9
2017-Jun-23 14:00N 42°22' W 071°03'0 0.5
2017-Jun-23 13:30N 42°22' W 071°03'611.4
2017-Jun-23 13:01N 42°17' W 070°58'3 5.1
2017-Jun-23 12:31N 42°16' W 070°55'816.3
2017-Jun-23 12:00N 42°21' W 071°03'612.8
2017-Jun-23 11:31N 42°17' W 070°57'2 4.0
2017-Jun-23 11:00N 42°15' W 070°55'2 3.6
2017-Jun-23 10:28N 42°15' W 070°58'2 0.2
2017-Jun-23 00:07N 42°15' W 070°55'0 0.0
2017-Jun-23 00:00N 42°15' W 070°55'816.7
2017-Jun-22 23:30N 42°21' W 071°03'2 4.7
2017-Jun-22 23:01N 42°20' W 071°00'612.3
2017-Jun-22 22:31N 42°15' W 070°55'816.7
2017-Jun-22 22:00N 42°21' W 071°03'1 1.6
2017-Jun-22 21:31N 42°21' W 071°02'815.5
2017-Jun-22 21:00N 42°15' W 070°55'816.7
2017-Jun-22 20:30N 42°21' W 071°03'0 0.5
2017-Jun-22 20:00N 42°22' W 071°03'0 0.0
2017-Jun-22 19:30N 42°22' W 071°03'0 0.0
2017-Jun-22 19:00N 42°22' W 071°03'1 1.2
2017-Jun-22 18:30N 42°22' W 071°02'1 1.2
2017-Jun-22 18:00N 42°22' W 071°03'1 1.4
2017-Jun-22 17:30N 42°21' W 071°02'1225.0
2017-Jun-22 17:01N 42°18' W 070°46'1913.4
2017-Jun-22 15:37N 42°20' W 070°20'1 2.3
2017-Jun-22 15:22N 42°20' W 070°20'822.4
2017-Jun-22 15:01N 42°23' W 070°30'2424.4
2017-Jun-22 14:00N 42°22' W 071°03'0 0.6
2017-Jun-22 13:31N 42°21' W 071°03'510.9
2017-Jun-22 13:01N 42°17' W 070°58'2 4.1
2017-Jun-22 12:31N 42°16' W 070°56'815.3
2017-Jun-22 12:00N 42°21' W 071°03'510.7
2017-Jun-22 11:30N 42°18' W 070°58'3 6.1
2017-Jun-22 11:00N 42°15' W 070°55'3 5.8
2017-Jun-22 10:30N 42°18' W 070°55'0 0.0
2017-Jun-22 10:00N 42°18' W 070°55'3 5.6
2017-Jun-22 09:30N 42°15' W 070°55'1 0.1
2017-Jun-22 01:04N 42°16' W 070°55'0 6.4
2017-Jun-22 01:01N 42°16' W 070°56'815.0
2017-Jun-22 00:30N 42°21' W 071°03'0 0.5
2017-Jun-22 00:00N 42°22' W 071°03'0 0.0
2017-Jun-21 23:31N 42°22' W 071°03'0 0.0
2017-Jun-21 23:01N 42°22' W 071°03'3 6.3
2017-Jun-21 22:30N 42°20' W 070°59'1632.1
2017-Jun-21 22:01N 42°21' W 070°38'13 8.7
2017-Jun-21 20:27N 42°23' W 070°20'1432.3
2017-Jun-21 20:00N 42°22' W 070°39'1632.2
2017-Jun-21 19:30N 42°21' W 071°01'2 3.6
2017-Jun-21 19:00N 42°22' W 071°03'1 1.3
2017-Jun-21 18:30N 42°22' W 071°02'1 1.5
2017-Jun-21 18:00N 42°21' W 071°02'1325.9
2017-Jun-21 17:30N 42°22' W 070°44'1224.5
2017-Jun-21 17:00N 42°24' W 070°28'5 4.5
2017-Jun-21 15:48N 42°24' W 070°20'0 1.3
2017-Jun-21 15:30N 42°24' W 070°21'1428.5
2017-Jun-21 15:01N 42°23' W 070°40'1631.6
2017-Jun-21 14:30N 42°21' W 071°01'7 1.9
2017-Jun-21 10:50N 42°15' W 070°55'0 0.0
2017-Jun-21 00:13N 42°15' W 070°55'0 2.3
2017-Jun-21 00:00N 42°16' W 070°55'816.1
2017-Jun-20 23:31N 42°21' W 071°03'3 6.0
2017-Jun-20 23:00N 42°20' W 070°60'510.4
2017-Jun-20 22:30N 42°15' W 070°55'817.1
2017-Jun-20 22:00N 42°21' W 071°03'3 5.9
2017-Jun-20 21:30N 42°20' W 070°60'510.8
2017-Jun-20 21:00N 42°15' W 070°55'816.5
2017-Jun-20 20:30N 42°21' W 071°03'1 2.6
2017-Jun-20 20:00N 42°23' W 071°03'1 1.0
2017-Jun-20 19:30N 42°22' W 071°03'1 1.2
2017-Jun-20 19:00N 42°22' W 071°02'1 1.2
2017-Jun-20 18:30N 42°22' W 071°03'1 1.2
2017-Jun-20 18:00N 42°21' W 071°02'1121.7
2017-Jun-20 17:30N 42°22' W 070°48'1530.5
2017-Jun-20 17:01N 42°25' W 070°27'2 3.9
2017-Jun-20 16:30N 42°26' W 070°25'510.0
2017-Jun-20 16:00N 42°22' W 070°21'510.4
2017-Jun-20 15:30N 42°26' W 070°26'713.9
2017-Jun-20 15:01N 42°23' W 070°34'2121.4
2017-Jun-20 14:00N 42°22' W 071°03'0 0.5
2017-Jun-20 13:30N 42°21' W 071°03'613.1
2017-Jun-20 13:00N 42°17' W 070°56'2 3.0
2017-Jun-20 12:30N 42°16' W 070°55'816.0
2017-Jun-20 12:00N 42°21' W 071°03'612.0
2017-Jun-20 11:31N 42°17' W 070°57'2 4.8
2017-Jun-20 11:00N 42°15' W 070°55'0 0.0
2017-Jun-20 00:26N 42°15' W 070°55'1 1.5
2017-Jun-20 00:00N 42°16' W 070°55'815.7
2017-Jun-19 23:30N 42°21' W 071°03'510.4
2017-Jun-19 23:01N 42°18' W 070°58'2 4.9
2017-Jun-19 22:30N 42°16' W 070°56'815.2
2017-Jun-19 22:00N 42°21' W 071°03'714.7
2017-Jun-19 21:30N 42°16' W 070°56'0 0.7
2017-Jun-19 21:00N 42°16' W 070°56'815.3
2017-Jun-19 20:30N 42°21' W 071°03'0 0.7
2017-Jun-19 20:00N 42°21' W 071°03'0 0.7
2017-Jun-19 19:30N 42°22' W 071°02'1 1.3
2017-Jun-19 19:00N 42°22' W 071°03'0 0.0
2017-Jun-19 18:30N 42°22' W 071°03'0 0.0
2017-Jun-19 17:59N 42°22' W 071°03'2 3.7
2017-Jun-19 17:31N 42°21' W 071°01'1529.7
2017-Jun-19 17:01N 42°21' W 070°41'1121.8
2017-Jun-19 16:30N 42°24' W 070°26'3 4.9
2017-Jun-19 15:55N 42°26' W 070°27'2 5.2
2017-Jun-19 15:31N 42°26' W 070°24'1019.2
2017-Jun-19 15:01N 42°22' W 070°36'2020.2
2017-Jun-19 14:00N 42°22' W 071°03'0 0.5
2017-Jun-19 13:31N 42°21' W 071°03'510.9
2017-Jun-19 13:01N 42°18' W 070°58'2 4.8
2017-Jun-19 12:30N 42°16' W 070°55'815.7
2017-Jun-19 12:00N 42°21' W 071°03'5 9.1
2017-Jun-19 11:31N 42°18' W 070°58'4 7.3
2017-Jun-19 10:59N 42°15' W 070°55'1 1.6
2017-Jun-19 10:30N 42°16' W 070°55'0 0.0
2017-Jun-19 10:00N 42°16' W 070°55'1 1.4
2017-Jun-19 09:30N 42°15' W 070°55'1 0.1
2017-Jun-18 22:35N 42°16' W 070°56'223.9
2017-Jun-18 22:30N 42°17' W 070°57'612.0
2017-Jun-18 22:01N 42°22' W 071°03'0 0.1
2017-Jun-18 21:30N 42°22' W 071°03'1529.2
2017-Jun-18 21:01N 42°23' W 070°43'2 4.8
2017-Jun-18 20:31N 42°23' W 070°40'1020.2
2017-Jun-18 20:00N 42°22' W 070°53'714.2
2017-Jun-18 19:30N 42°22' W 071°03'0 0.0
2017-Jun-18 19:00N 42°22' W 071°03'0 0.3
2017-Jun-18 18:31N 42°22' W 071°03'713.1
2017-Jun-18 18:01N 42°22' W 070°54'1530.9
2017-Jun-18 17:30N 42°23' W 070°33'816.8
2017-Jun-18 17:00N 42°24' W 070°22'1 1.3
2017-Jun-18 16:30N 42°24' W 070°21'917.5
2017-Jun-18 16:01N 42°23' W 070°32'1530.7
2017-Jun-18 15:30N 42°22' W 070°53'714.5
2017-Jun-18 15:00N 42°22' W 071°03'1 0.6
2017-Jun-18 14:00N 42°22' W 071°02'815.1
2017-Jun-18 13:30N 42°16' W 070°55'1 0.0
2017-Jun-17 20:39N 42°15' W 070°55'0 1.4
2017-Jun-17 20:30N 42°15' W 070°55'714.4
2017-Jun-17 20:00N 42°21' W 071°01'2 3.2
2017-Jun-17 19:30N 42°22' W 071°03'2 4.3
2017-Jun-17 19:00N 42°20' W 071°01'4 7.1
2017-Jun-17 18:30N 42°18' W 070°58'3 5.2
2017-Jun-17 18:01N 42°20' W 070°58'0 0.0
2017-Jun-17 17:30N 42°20' W 070°58'0 0.0
2017-Jun-17 17:00N 42°20' W 070°58'0 0.0
2017-Jun-17 16:31N 42°20' W 070°58'0 0.0
2017-Jun-17 16:01N 42°20' W 070°58'0 0.1
2017-Jun-17 15:31N 42°20' W 070°58'0 0.0
2017-Jun-17 15:00N 42°20' W 070°58'0 0.0
2017-Jun-17 14:01N 42°20' W 070°58'0 0.0
2017-Jun-17 13:31N 42°20' W 070°58'0 0.0
2017-Jun-17 13:01N 42°20' W 070°58'0 0.0
2017-Jun-17 12:31N 42°20' W 070°58'0 0.0
2017-Jun-17 12:00N 42°20' W 070°58'2 4.4
2017-Jun-17 11:31N 42°21' W 071°01'1 2.9
2017-Jun-17 11:00N 42°22' W 071°03'0 0.0
2017-Jun-17 10:30N 42°22' W 071°03'0 0.0
2017-Jun-17 10:00N 42°22' W 071°03'0 0.2
2017-Jun-17 09:30N 42°22' W 071°03'0 0.9
2017-Jun-17 09:01N 42°21' W 071°02'8 0.9
2017-Jun-17 00:10N 42°15' W 070°55'0 1.4
2017-Jun-16 23:59N 42°15' W 070°55'817.5
2017-Jun-16 23:31N 42°21' W 071°03'3 6.4
2017-Jun-16 23:01N 42°19' W 070°60'5 9.2
2017-Jun-16 22:27N 42°15' W 070°55'818.4
2017-Jun-16 22:00N 42°21' W 071°03'2 3.2
2017-Jun-16 21:30N 42°21' W 071°01'713.4
2017-Jun-16 21:00N 42°15' W 070°55'816.9
2017-Jun-16 20:30N 42°21' W 071°03'0 0.4
2017-Jun-16 20:00N 42°21' W 071°03'0 0.5
2017-Jun-16 19:30N 42°22' W 071°03'0 0.0
2017-Jun-16 19:00N 42°22' W 071°03'  

Dump ship's entire track history